sensor_id;sensor_type;location;lat;lon;timestamp;P1;durP1;ratioP1;P2;durP2;ratioP2
63807;SDS011;49961;43.970;22.868;2024-01-16T00:00:58;16.87;;;9.53;;
63807;SDS011;49961;43.970;22.868;2024-01-16T00:01:58;15.17;;;9.17;;
63807;SDS011;49961;43.970;22.868;2024-01-16T00:02:59;20.57;;;9.90;;
63807;SDS011;49961;43.970;22.868;2024-01-16T00:03:59;16.20;;;9.33;;
63807;SDS011;49961;43.970;22.868;2024-01-16T00:05:00;16.10;;;9.47;;
63807;SDS011;49961;43.970;22.868;2024-01-16T00:06:00;15.27;;;9.73;;
63807;SDS011;49961;43.970;22.868;2024-01-16T00:07:01;19.83;;;12.77;;
63807;SDS011;49961;43.970;22.868;2024-01-16T00:08:01;17.73;;;10.87;;
63807;SDS011;49961;43.970;22.868;2024-01-16T00:09:02;19.53;;;10.87;;
63807;SDS011;49961;43.970;22.868;2024-01-16T00:10:03;18.00;;;9.93;;
63807;SDS011;49961;43.970;22.868;2024-01-16T00:11:04;16.57;;;8.37;;
63807;SDS011;49961;43.970;22.868;2024-01-16T00:12:04;12.63;;;7.27;;
63807;SDS011;49961;43.970;22.868;2024-01-16T00:13:05;15.63;;;8.23;;
63807;SDS011;49961;43.970;22.868;2024-01-16T00:14:06;13.87;;;7.93;;
63807;SDS011;49961;43.970;22.868;2024-01-16T00:15:07;12.77;;;8.07;;
63807;SDS011;49961;43.970;22.868;2024-01-16T00:16:09;13.27;;;8.55;;
63807;SDS011;49961;43.970;22.868;2024-01-16T00:17:10;13.27;;;7.07;;
63807;SDS011;49961;43.970;22.868;2024-01-16T00:18:11;12.05;;;7.13;;
63807;SDS011;49961;43.970;22.868;2024-01-16T00:19:12;12.67;;;7.30;;
63807;SDS011;49961;43.970;22.868;2024-01-16T00:20:12;17.17;;;8.10;;
63807;SDS011;49961;43.970;22.868;2024-01-16T00:21:13;12.90;;;7.20;;
63807;SDS011;49961;43.970;22.868;2024-01-16T00:22:14;9.77;;;6.30;;
63807;SDS011;49961;43.970;22.868;2024-01-16T00:23:14;15.20;;;7.13;;
63807;SDS011;49961;43.970;22.868;2024-01-16T00:24:14;11.00;;;7.57;;
63807;SDS011;49961;43.970;22.868;2024-01-16T00:25:15;13.17;;;6.93;;
63807;SDS011;49961;43.970;22.868;2024-01-16T00:26:20;8.38;;;5.57;;
63807;SDS011;49961;43.970;22.868;2024-01-16T00:27:21;13.68;;;7.88;;
63807;SDS011;49961;43.970;22.868;2024-01-16T00:28:22;11.30;;;7.17;;
63807;SDS011;49961;43.970;22.868;2024-01-16T00:29:22;12.20;;;6.67;;
63807;SDS011;49961;43.970;22.868;2024-01-16T00:30:23;11.68;;;7.50;;
63807;SDS011;49961;43.970;22.868;2024-01-16T00:31:24;13.87;;;7.90;;
63807;SDS011;49961;43.970;22.868;2024-01-16T00:32:24;14.87;;;7.77;;
63807;SDS011;49961;43.970;22.868;2024-01-16T00:33:25;12.20;;;6.80;;
63807;SDS011;49961;43.970;22.868;2024-01-16T00:34:27;12.40;;;7.70;;
63807;SDS011;49961;43.970;22.868;2024-01-16T00:35:28;13.27;;;7.87;;
63807;SDS011;49961;43.970;22.868;2024-01-16T00:36:28;15.10;;;7.77;;
63807;SDS011;49961;43.970;22.868;2024-01-16T00:37:29;12.53;;;7.00;;
63807;SDS011;49961;43.970;22.868;2024-01-16T00:38:32;12.50;;;7.83;;
63807;SDS011;49961;43.970;22.868;2024-01-16T00:39:33;11.25;;;7.00;;
63807;SDS011;49961;43.970;22.868;2024-01-16T00:40:33;11.73;;;7.23;;
63807;SDS011;49961;43.970;22.868;2024-01-16T00:41:34;14.07;;;7.20;;
63807;SDS011;49961;43.970;22.868;2024-01-16T00:42:34;13.70;;;7.63;;
63807;SDS011;49961;43.970;22.868;2024-01-16T00:43:35;15.43;;;7.33;;
63807;SDS011;49961;43.970;22.868;2024-01-16T00:44:35;12.30;;;6.93;;
63807;SDS011;49961;43.970;22.868;2024-01-16T00:45:36;13.13;;;7.20;;
63807;SDS011;49961;43.970;22.868;2024-01-16T00:46:36;11.80;;;6.97;;
63807;SDS011;49961;43.970;22.868;2024-01-16T00:47:37;13.17;;;6.90;;
63807;SDS011;49961;43.970;22.868;2024-01-16T00:48:37;11.20;;;6.50;;
63807;SDS011;49961;43.970;22.868;2024-01-16T00:49:38;15.23;;;7.30;;
63807;SDS011;49961;43.970;22.868;2024-01-16T00:50:39;15.00;;;7.40;;
63807;SDS011;49961;43.970;22.868;2024-01-16T00:51:39;14.93;;;9.07;;
63807;SDS011;49961;43.970;22.868;2024-01-16T00:52:40;17.03;;;10.13;;
63807;SDS011;49961;43.970;22.868;2024-01-16T00:53:41;15.93;;;8.97;;
63807;SDS011;49961;43.970;22.868;2024-01-16T00:54:42;13.55;;;7.13;;
63807;SDS011;49961;43.970;22.868;2024-01-16T00:55:43;13.13;;;6.57;;
63807;SDS011;49961;43.970;22.868;2024-01-16T00:56:44;15.00;;;8.93;;
63807;SDS011;49961;43.970;22.868;2024-01-16T00:57:44;11.83;;;6.67;;
63807;SDS011;49961;43.970;22.868;2024-01-16T00:58:45;13.23;;;7.37;;
63807;SDS011;49961;43.970;22.868;2024-01-16T00:59:46;11.80;;;6.47;;
63807;SDS011;49961;43.970;22.868;2024-01-16T01:00:46;10.93;;;6.75;;
63807;SDS011;49961;43.970;22.868;2024-01-16T01:01:47;13.60;;;7.00;;
63807;SDS011;49961;43.970;22.868;2024-01-16T01:02:48;10.80;;;6.77;;
63807;SDS011;49961;43.970;22.868;2024-01-16T01:03:48;12.80;;;7.33;;
63807;SDS011;49961;43.970;22.868;2024-01-16T01:04:49;11.33;;;5.87;;
63807;SDS011;49961;43.970;22.868;2024-01-16T01:05:49;10.37;;;7.00;;
63807;SDS011;49961;43.970;22.868;2024-01-16T01:06:50;9.10;;;6.23;;
63807;SDS011;49961;43.970;22.868;2024-01-16T01:07:50;13.83;;;6.50;;
63807;SDS011;49961;43.970;22.868;2024-01-16T01:08:51;16.27;;;7.40;;
63807;SDS011;49961;43.970;22.868;2024-01-16T01:09:51;12.03;;;6.93;;
63807;SDS011;49961;43.970;22.868;2024-01-16T01:10:52;10.60;;;6.53;;
63807;SDS011;49961;43.970;22.868;2024-01-16T01:11:52;10.63;;;6.50;;
63807;SDS011;49961;43.970;22.868;2024-01-16T01:12:53;13.70;;;6.37;;
63807;SDS011;49961;43.970;22.868;2024-01-16T01:13:53;11.50;;;6.93;;
63807;SDS011;49961;43.970;22.868;2024-01-16T01:14:54;10.40;;;5.93;;
63807;SDS011;49961;43.970;22.868;2024-01-16T01:15:54;10.53;;;5.97;;
63807;SDS011;49961;43.970;22.868;2024-01-16T01:16:55;12.60;;;6.73;;
63807;SDS011;49961;43.970;22.868;2024-01-16T01:17:55;15.00;;;6.60;;
63807;SDS011;49961;43.970;22.868;2024-01-16T01:18:56;9.60;;;5.17;;
63807;SDS011;49961;43.970;22.868;2024-01-16T01:19:56;10.67;;;5.73;;
63807;SDS011;49961;43.970;22.868;2024-01-16T01:20:57;10.60;;;5.47;;
63807;SDS011;49961;43.970;22.868;2024-01-16T01:21:58;13.07;;;6.20;;
63807;SDS011;49961;43.970;22.868;2024-01-16T01:22:58;12.00;;;6.10;;
63807;SDS011;49961;43.970;22.868;2024-01-16T01:24:00;12.63;;;6.45;;
63807;SDS011;49961;43.970;22.868;2024-01-16T01:25:00;9.43;;;5.20;;
63807;SDS011;49961;43.970;22.868;2024-01-16T01:26:01;8.27;;;5.20;;
63807;SDS011;49961;43.970;22.868;2024-01-16T01:27:01;7.40;;;4.80;;
63807;SDS011;49961;43.970;22.868;2024-01-16T01:28:02;13.13;;;5.77;;
63807;SDS011;49961;43.970;22.868;2024-01-16T01:29:02;8.00;;;4.60;;
63807;SDS011;49961;43.970;22.868;2024-01-16T01:30:03;10.17;;;4.60;;
63807;SDS011;49961;43.970;22.868;2024-01-16T01:31:04;6.72;;;4.47;;
63807;SDS011;49961;43.970;22.868;2024-01-16T01:32:05;9.80;;;5.10;;
63807;SDS011;49961;43.970;22.868;2024-01-16T01:33:05;6.50;;;3.80;;
63807;SDS011;49961;43.970;22.868;2024-01-16T01:34:06;7.37;;;4.17;;
63807;SDS011;49961;43.970;22.868;2024-01-16T01:35:07;9.00;;;4.07;;
63807;SDS011;49961;43.970;22.868;2024-01-16T01:36:08;8.17;;;4.90;;
63807;SDS011;49961;43.970;22.868;2024-01-16T01:37:08;7.83;;;4.20;;
63807;SDS011;49961;43.970;22.868;2024-01-16T01:38:09;7.10;;;3.97;;
63807;SDS011;49961;43.970;22.868;2024-01-16T01:39:09;6.00;;;3.93;;
63807;SDS011;49961;43.970;22.868;2024-01-16T01:40:11;6.93;;;3.50;;
63807;SDS011;49961;43.970;22.868;2024-01-16T01:41:12;5.28;;;3.15;;
63807;SDS011;49961;43.970;22.868;2024-01-16T01:42:14;6.63;;;3.53;;
63807;SDS011;49961;43.970;22.868;2024-01-16T01:43:22;8.02;;;3.58;;
63807;SDS011;49961;43.970;22.868;2024-01-16T01:44:24;4.82;;;2.90;;
63807;SDS011;49961;43.970;22.868;2024-01-16T01:45:25;4.13;;;2.80;;
63807;SDS011;49961;43.970;22.868;2024-01-16T01:46:26;4.93;;;2.80;;
63807;SDS011;49961;43.970;22.868;2024-01-16T01:47:27;5.05;;;2.78;;
63807;SDS011;49961;43.970;22.868;2024-01-16T01:48:29;4.00;;;2.13;;
63807;SDS011;49961;43.970;22.868;2024-01-16T01:49:32;4.05;;;2.45;;
63807;SDS011;49961;43.970;22.868;2024-01-16T01:50:32;4.37;;;2.53;;
63807;SDS011;49961;43.970;22.868;2024-01-16T01:51:33;3.47;;;1.93;;
63807;SDS011;49961;43.970;22.868;2024-01-16T01:52:34;2.70;;;1.50;;
63807;SDS011;49961;43.970;22.868;2024-01-16T01:53:35;2.17;;;1.42;;
63807;SDS011;49961;43.970;22.868;2024-01-16T01:54:37;2.38;;;1.40;;
63807;SDS011;49961;43.970;22.868;2024-01-16T01:55:38;3.05;;;1.50;;
63807;SDS011;49961;43.970;22.868;2024-01-16T01:56:39;1.07;;;0.93;;
63807;SDS011;49961;43.970;22.868;2024-01-16T01:57:42;2.25;;;1.13;;
63807;SDS011;49961;43.970;22.868;2024-01-16T01:58:43;2.37;;;1.00;;
63807;SDS011;49961;43.970;22.868;2024-01-16T01:59:46;1.40;;;0.80;;
63807;SDS011;49961;43.970;22.868;2024-01-16T02:00:47;1.57;;;0.80;;
63807;SDS011;49961;43.970;22.868;2024-01-16T02:01:47;0.97;;;0.70;;
63807;SDS011;49961;43.970;22.868;2024-01-16T02:02:49;1.73;;;0.77;;
63807;SDS011;49961;43.970;22.868;2024-01-16T02:03:51;1.77;;;0.60;;
63807;SDS011;49961;43.970;22.868;2024-01-16T02:04:52;0.95;;;0.70;;
63807;SDS011;49961;43.970;22.868;2024-01-16T02:05:53;1.60;;;0.70;;
63807;SDS011;49961;43.970;22.868;2024-01-16T02:06:54;1.43;;;0.67;;
63807;SDS011;49961;43.970;22.868;2024-01-16T02:07:56;2.03;;;0.57;;
63807;SDS011;49961;43.970;22.868;2024-01-16T02:08:58;0.93;;;0.60;;
63807;SDS011;49961;43.970;22.868;2024-01-16T02:09:59;0.95;;;0.68;;
63807;SDS011;49961;43.970;22.868;2024-01-16T02:11:00;1.40;;;0.60;;
63807;SDS011;49961;43.970;22.868;2024-01-16T02:12:01;0.53;;;0.50;;
63807;SDS011;49961;43.970;22.868;2024-01-16T02:13:01;1.10;;;0.60;;
63807;SDS011;49961;43.970;22.868;2024-01-16T02:14:02;1.50;;;0.50;;
63807;SDS011;49961;43.970;22.868;2024-01-16T02:15:03;0.83;;;0.50;;
63807;SDS011;49961;43.970;22.868;2024-01-16T02:16:03;1.20;;;0.50;;
63807;SDS011;49961;43.970;22.868;2024-01-16T02:17:05;0.95;;;0.47;;
63807;SDS011;49961;43.970;22.868;2024-01-16T02:18:06;0.67;;;0.40;;
63807;SDS011;49961;43.970;22.868;2024-01-16T02:19:08;0.57;;;0.45;;
63807;SDS011;49961;43.970;22.868;2024-01-16T02:20:09;0.90;;;0.50;;
63807;SDS011;49961;43.970;22.868;2024-01-16T02:21:09;1.67;;;0.70;;
63807;SDS011;49961;43.970;22.868;2024-01-16T02:22:12;1.52;;;0.57;;
63807;SDS011;49961;43.970;22.868;2024-01-16T02:23:24;0.50;;;0.30;;
63807;SDS011;49961;43.970;22.868;2024-01-16T02:24:27;0.55;;;0.40;;
63807;SDS011;49961;43.970;22.868;2024-01-16T02:25:27;0.67;;;0.40;;
63807;SDS011;49961;43.970;22.868;2024-01-16T02:26:28;0.47;;;0.40;;
63807;SDS011;49961;43.970;22.868;2024-01-16T02:27:30;0.88;;;0.50;;
63807;SDS011;49961;43.970;22.868;2024-01-16T02:28:31;0.33;;;0.20;;
63807;SDS011;49961;43.970;22.868;2024-01-16T02:29:31;0.30;;;0.23;;
63807;SDS011;49961;43.970;22.868;2024-01-16T02:30:32;0.50;;;0.40;;
63807;SDS011;49961;43.970;22.868;2024-01-16T02:31:32;0.30;;;0.30;;
63807;SDS011;49961;43.970;22.868;2024-01-16T02:32:33;0.40;;;0.40;;
63807;SDS011;49961;43.970;22.868;2024-01-16T02:33:34;0.50;;;0.30;;
63807;SDS011;49961;43.970;22.868;2024-01-16T02:34:34;0.20;;;0.20;;
63807;SDS011;49961;43.970;22.868;2024-01-16T02:35:35;0.20;;;0.20;;
63807;SDS011;49961;43.970;22.868;2024-01-16T02:36:35;0.60;;;0.30;;
63807;SDS011;49961;43.970;22.868;2024-01-16T02:37:36;0.20;;;0.20;;
63807;SDS011;49961;43.970;22.868;2024-01-16T02:38:36;0.10;;;0.10;;
63807;SDS011;49961;43.970;22.868;2024-01-16T02:39:37;0.23;;;0.23;;
63807;SDS011;49961;43.970;22.868;2024-01-16T02:40:37;0.20;;;0.20;;
63807;SDS011;49961;43.970;22.868;2024-01-16T02:41:38;0.40;;;0.33;;
63807;SDS011;49961;43.970;22.868;2024-01-16T02:42:38;0.53;;;0.30;;
63807;SDS011;49961;43.970;22.868;2024-01-16T02:43:39;0.20;;;0.20;;
63807;SDS011;49961;43.970;22.868;2024-01-16T02:44:39;0.33;;;0.30;;
63807;SDS011;49961;43.970;22.868;2024-01-16T02:45:40;0.30;;;0.30;;
63807;SDS011;49961;43.970;22.868;2024-01-16T02:46:41;0.10;;;0.10;;
63807;SDS011;49961;43.970;22.868;2024-01-16T02:47:41;0.17;;;0.17;;
63807;SDS011;49961;43.970;22.868;2024-01-16T02:48:42;0.20;;;0.20;;
63807;SDS011;49961;43.970;22.868;2024-01-16T02:49:42;0.20;;;0.20;;
63807;SDS011;49961;43.970;22.868;2024-01-16T02:50:43;0.13;;;0.10;;
63807;SDS011;49961;43.970;22.868;2024-01-16T02:51:43;0.30;;;0.30;;
63807;SDS011;49961;43.970;22.868;2024-01-16T02:52:44;0.10;;;0.10;;
63807;SDS011;49961;43.970;22.868;2024-01-16T02:53:44;0.10;;;0.10;;
63807;SDS011;49961;43.970;22.868;2024-01-16T02:54:45;0.10;;;0.10;;
63807;SDS011;49961;43.970;22.868;2024-01-16T02:55:45;0.53;;;0.20;;
63807;SDS011;49961;43.970;22.868;2024-01-16T02:56:46;0.97;;;0.33;;
63807;SDS011;49961;43.970;22.868;2024-01-16T02:57:47;0.10;;;0.10;;
63807;SDS011;49961;43.970;22.868;2024-01-16T02:58:48;0.47;;;0.30;;
63807;SDS011;49961;43.970;22.868;2024-01-16T02:59:48;0.10;;;0.10;;
63807;SDS011;49961;43.970;22.868;2024-01-16T03:00:49;0.20;;;0.20;;
63807;SDS011;49961;43.970;22.868;2024-01-16T03:01:49;0.47;;;0.20;;
63807;SDS011;49961;43.970;22.868;2024-01-16T03:02:50;0.40;;;0.23;;
63807;SDS011;49961;43.970;22.868;2024-01-16T03:03:50;0.20;;;0.20;;
63807;SDS011;49961;43.970;22.868;2024-01-16T03:04:51;0.20;;;0.20;;
63807;SDS011;49961;43.970;22.868;2024-01-16T03:05:51;0.20;;;0.20;;
63807;SDS011;49961;43.970;22.868;2024-01-16T03:06:52;0.20;;;0.20;;
63807;SDS011;49961;43.970;22.868;2024-01-16T03:07:52;0.27;;;0.20;;
63807;SDS011;49961;43.970;22.868;2024-01-16T03:08:53;0.30;;;0.20;;
63807;SDS011;49961;43.970;22.868;2024-01-16T03:09:53;0.40;;;0.30;;
63807;SDS011;49961;43.970;22.868;2024-01-16T03:10:54;0.40;;;0.27;;
63807;SDS011;49961;43.970;22.868;2024-01-16T03:11:54;0.30;;;0.20;;
63807;SDS011;49961;43.970;22.868;2024-01-16T03:12:55;0.20;;;0.20;;
63807;SDS011;49961;43.970;22.868;2024-01-16T03:13:57;0.20;;;0.20;;
63807;SDS011;49961;43.970;22.868;2024-01-16T03:14:57;1.60;;;0.23;;
63807;SDS011;49961;43.970;22.868;2024-01-16T03:15:58;0.20;;;0.10;;
63807;SDS011;49961;43.970;22.868;2024-01-16T03:16:58;0.20;;;0.20;;
63807;SDS011;49961;43.970;22.868;2024-01-16T03:17:59;0.40;;;0.20;;
63807;SDS011;49961;43.970;22.868;2024-01-16T03:19:00;0.10;;;0.10;;
63807;SDS011;49961;43.970;22.868;2024-01-16T03:20:01;0.10;;;0.10;;
63807;SDS011;49961;43.970;22.868;2024-01-16T03:21:06;0.70;;;0.20;;
63807;SDS011;49961;43.970;22.868;2024-01-16T03:22:07;0.20;;;0.10;;
63807;SDS011;49961;43.970;22.868;2024-01-16T03:23:08;0.10;;;0.10;;
63807;SDS011;49961;43.970;22.868;2024-01-16T03:24:08;0.23;;;0.20;;
63807;SDS011;49961;43.970;22.868;2024-01-16T03:25:11;0.17;;;0.17;;
63807;SDS011;49961;43.970;22.868;2024-01-16T03:26:15;0.30;;;0.30;;
63807;SDS011;49961;43.970;22.868;2024-01-16T03:27:15;0.10;;;0.10;;
63807;SDS011;49961;43.970;22.868;2024-01-16T03:28:16;0.10;;;0.10;;
63807;SDS011;49961;43.970;22.868;2024-01-16T03:29:16;0.10;;;0.10;;
63807;SDS011;49961;43.970;22.868;2024-01-16T03:30:17;0.30;;;0.30;;
63807;SDS011;49961;43.970;22.868;2024-01-16T03:31:17;0.10;;;0.10;;
63807;SDS011;49961;43.970;22.868;2024-01-16T03:32:21;0.22;;;0.17;;
63807;SDS011;49961;43.970;22.868;2024-01-16T03:33:21;0.50;;;0.20;;
63807;SDS011;49961;43.970;22.868;2024-01-16T03:34:23;0.30;;;0.10;;
63807;SDS011;49961;43.970;22.868;2024-01-16T03:35:24;0.10;;;0.10;;
63807;SDS011;49961;43.970;22.868;2024-01-16T03:36:24;0.10;;;0.10;;
63807;SDS011;49961;43.970;22.868;2024-01-16T03:37:25;0.10;;;0.10;;
63807;SDS011;49961;43.970;22.868;2024-01-16T03:38:25;0.10;;;0.10;;
63807;SDS011;49961;43.970;22.868;2024-01-16T03:39:26;0.20;;;0.20;;
63807;SDS011;49961;43.970;22.868;2024-01-16T03:40:27;4.60;;;0.30;;
63807;SDS011;49961;43.970;22.868;2024-01-16T03:41:27;0.27;;;0.20;;
63807;SDS011;49961;43.970;22.868;2024-01-16T03:42:28;0.20;;;0.20;;
63807;SDS011;49961;43.970;22.868;2024-01-16T03:43:29;0.10;;;0.10;;
63807;SDS011;49961;43.970;22.868;2024-01-16T03:44:30;0.10;;;0.10;;
63807;SDS011;49961;43.970;22.868;2024-01-16T03:45:30;0.10;;;0.10;;
63807;SDS011;49961;43.970;22.868;2024-01-16T03:46:31;0.20;;;0.20;;
63807;SDS011;49961;43.970;22.868;2024-01-16T03:47:32;0.10;;;0.10;;
63807;SDS011;49961;43.970;22.868;2024-01-16T03:48:32;0.20;;;0.20;;
63807;SDS011;49961;43.970;22.868;2024-01-16T03:49:33;0.20;;;0.10;;
63807;SDS011;49961;43.970;22.868;2024-01-16T03:50:33;0.30;;;0.27;;
63807;SDS011;49961;43.970;22.868;2024-01-16T03:51:35;0.10;;;0.10;;
63807;SDS011;49961;43.970;22.868;2024-01-16T03:52:36;0.20;;;0.20;;
63807;SDS011;49961;43.970;22.868;2024-01-16T03:53:36;0.80;;;0.23;;
63807;SDS011;49961;43.970;22.868;2024-01-16T03:54:37;0.17;;;0.17;;
63807;SDS011;49961;43.970;22.868;2024-01-16T03:55:37;0.20;;;0.20;;
63807;SDS011;49961;43.970;22.868;2024-01-16T03:56:38;0.53;;;0.20;;
63807;SDS011;49961;43.970;22.868;2024-01-16T03:57:39;0.13;;;0.13;;
63807;SDS011;49961;43.970;22.868;2024-01-16T03:58:40;0.20;;;0.20;;
63807;SDS011;49961;43.970;22.868;2024-01-16T03:59:41;0.10;;;0.10;;
63807;SDS011;49961;43.970;22.868;2024-01-16T04:00:42;0.10;;;0.10;;
63807;SDS011;49961;43.970;22.868;2024-01-16T04:01:43;0.60;;;0.30;;
63807;SDS011;49961;43.970;22.868;2024-01-16T04:02:45;0.52;;;0.30;;
63807;SDS011;49961;43.970;22.868;2024-01-16T04:03:46;1.10;;;0.20;;
63807;SDS011;49961;43.970;22.868;2024-01-16T04:04:46;0.10;;;0.10;;
63807;SDS011;49961;43.970;22.868;2024-01-16T04:05:47;0.10;;;0.10;;
63807;SDS011;49961;43.970;22.868;2024-01-16T04:06:48;0.17;;;0.17;;
63807;SDS011;49961;43.970;22.868;2024-01-16T04:07:48;0.37;;;0.20;;
63807;SDS011;49961;43.970;22.868;2024-01-16T04:08:49;0.20;;;0.20;;
63807;SDS011;49961;43.970;22.868;2024-01-16T04:09:50;0.20;;;0.20;;
63807;SDS011;49961;43.970;22.868;2024-01-16T04:10:50;0.20;;;0.20;;
63807;SDS011;49961;43.970;22.868;2024-01-16T04:11:51;0.10;;;0.10;;
63807;SDS011;49961;43.970;22.868;2024-01-16T04:12:51;0.17;;;0.17;;
63807;SDS011;49961;43.970;22.868;2024-01-16T04:13:52;0.10;;;0.10;;
63807;SDS011;49961;43.970;22.868;2024-01-16T04:14:52;0.20;;;0.20;;
63807;SDS011;49961;43.970;22.868;2024-01-16T04:15:53;2.27;;;0.23;;
63807;SDS011;49961;43.970;22.868;2024-01-16T04:16:54;0.37;;;0.20;;
63807;SDS011;49961;43.970;22.868;2024-01-16T04:17:54;0.10;;;0.10;;
63807;SDS011;49961;43.970;22.868;2024-01-16T04:18:55;0.30;;;0.20;;
63807;SDS011;49961;43.970;22.868;2024-01-16T04:19:55;0.20;;;0.20;;
63807;SDS011;49961;43.970;22.868;2024-01-16T04:20:56;0.10;;;0.10;;
63807;SDS011;49961;43.970;22.868;2024-01-16T04:21:56;0.23;;;0.20;;
63807;SDS011;49961;43.970;22.868;2024-01-16T04:22:57;0.60;;;0.30;;
63807;SDS011;49961;43.970;22.868;2024-01-16T04:23:58;0.25;;;0.20;;
63807;SDS011;49961;43.970;22.868;2024-01-16T04:24:58;0.20;;;0.20;;
63807;SDS011;49961;43.970;22.868;2024-01-16T04:25:59;0.47;;;0.27;;
63807;SDS011;49961;43.970;22.868;2024-01-16T04:27:00;0.30;;;0.20;;
63807;SDS011;49961;43.970;22.868;2024-01-16T04:28:00;0.10;;;0.10;;
63807;SDS011;49961;43.970;22.868;2024-01-16T04:29:01;0.40;;;0.30;;
63807;SDS011;49961;43.970;22.868;2024-01-16T04:30:02;0.80;;;0.20;;
63807;SDS011;49961;43.970;22.868;2024-01-16T04:31:03;0.50;;;0.50;;
63807;SDS011;49961;43.970;22.868;2024-01-16T04:32:04;0.28;;;0.20;;
63807;SDS011;49961;43.970;22.868;2024-01-16T04:33:05;0.10;;;0.10;;
63807;SDS011;49961;43.970;22.868;2024-01-16T04:34:05;0.20;;;0.20;;
63807;SDS011;49961;43.970;22.868;2024-01-16T04:35:06;0.20;;;0.20;;
63807;SDS011;49961;43.970;22.868;2024-01-16T04:36:07;0.23;;;0.20;;
63807;SDS011;49961;43.970;22.868;2024-01-16T04:37:07;0.30;;;0.20;;
63807;SDS011;49961;43.970;22.868;2024-01-16T04:38:08;0.50;;;0.20;;
63807;SDS011;49961;43.970;22.868;2024-01-16T04:39:08;0.57;;;0.43;;
63807;SDS011;49961;43.970;22.868;2024-01-16T04:40:09;0.23;;;0.20;;
63807;SDS011;49961;43.970;22.868;2024-01-16T04:41:10;0.30;;;0.20;;
63807;SDS011;49961;43.970;22.868;2024-01-16T04:42:10;0.93;;;0.30;;
63807;SDS011;49961;43.970;22.868;2024-01-16T04:43:11;0.35;;;0.20;;
63807;SDS011;49961;43.970;22.868;2024-01-16T04:44:12;0.20;;;0.20;;
63807;SDS011;49961;43.970;22.868;2024-01-16T04:45:12;0.53;;;0.37;;
63807;SDS011;49961;43.970;22.868;2024-01-16T04:46:14;0.40;;;0.33;;
63807;SDS011;49961;43.970;22.868;2024-01-16T04:47:15;1.27;;;0.40;;
63807;SDS011;49961;43.970;22.868;2024-01-16T04:48:15;0.20;;;0.20;;
63807;SDS011;49961;43.970;22.868;2024-01-16T04:49:16;1.70;;;0.30;;
63807;SDS011;49961;43.970;22.868;2024-01-16T04:50:16;0.20;;;0.20;;
63807;SDS011;49961;43.970;22.868;2024-01-16T04:51:17;0.47;;;0.30;;
63807;SDS011;49961;43.970;22.868;2024-01-16T04:52:17;0.47;;;0.30;;
63807;SDS011;49961;43.970;22.868;2024-01-16T04:53:18;0.40;;;0.30;;
63807;SDS011;49961;43.970;22.868;2024-01-16T04:54:18;0.40;;;0.30;;
63807;SDS011;49961;43.970;22.868;2024-01-16T04:55:19;1.07;;;0.50;;
63807;SDS011;49961;43.970;22.868;2024-01-16T04:56:19;0.33;;;0.20;;
63807;SDS011;49961;43.970;22.868;2024-01-16T04:57:21;0.20;;;0.20;;
63807;SDS011;49961;43.970;22.868;2024-01-16T04:58:21;0.40;;;0.30;;
63807;SDS011;49961;43.970;22.868;2024-01-16T04:59:22;0.70;;;0.30;;
63807;SDS011;49961;43.970;22.868;2024-01-16T05:00:22;0.40;;;0.20;;
63807;SDS011;49961;43.970;22.868;2024-01-16T05:01:23;2.60;;;0.20;;
63807;SDS011;49961;43.970;22.868;2024-01-16T05:02:25;0.80;;;0.30;;
63807;SDS011;49961;43.970;22.868;2024-01-16T05:03:25;0.30;;;0.30;;
63807;SDS011;49961;43.970;22.868;2024-01-16T05:04:26;0.20;;;0.20;;
63807;SDS011;49961;43.970;22.868;2024-01-16T05:05:26;0.63;;;0.30;;
63807;SDS011;49961;43.970;22.868;2024-01-16T05:06:27;0.77;;;0.33;;
63807;SDS011;49961;43.970;22.868;2024-01-16T05:07:28;0.60;;;0.40;;
63807;SDS011;49961;43.970;22.868;2024-01-16T05:08:28;0.50;;;0.40;;
63807;SDS011;49961;43.970;22.868;2024-01-16T05:09:30;0.55;;;0.38;;
63807;SDS011;49961;43.970;22.868;2024-01-16T05:10:30;0.50;;;0.50;;
63807;SDS011;49961;43.970;22.868;2024-01-16T05:11:31;0.20;;;0.20;;
63807;SDS011;49961;43.970;22.868;2024-01-16T05:12:31;0.23;;;0.23;;
63807;SDS011;49961;43.970;22.868;2024-01-16T05:13:32;0.30;;;0.30;;
63807;SDS011;49961;43.970;22.868;2024-01-16T05:14:32;1.20;;;0.60;;
63807;SDS011;49961;43.970;22.868;2024-01-16T05:15:33;1.00;;;0.37;;
63807;SDS011;49961;43.970;22.868;2024-01-16T05:16:33;0.70;;;0.40;;
63807;SDS011;49961;43.970;22.868;2024-01-16T05:17:34;0.40;;;0.40;;
63807;SDS011;49961;43.970;22.868;2024-01-16T05:18:34;0.40;;;0.40;;
63807;SDS011;49961;43.970;22.868;2024-01-16T05:19:35;0.87;;;0.40;;
63807;SDS011;49961;43.970;22.868;2024-01-16T05:20:35;0.43;;;0.40;;
63807;SDS011;49961;43.970;22.868;2024-01-16T05:21:36;0.63;;;0.60;;
63807;SDS011;49961;43.970;22.868;2024-01-16T05:22:36;0.47;;;0.33;;
63807;SDS011;49961;43.970;22.868;2024-01-16T05:23:39;0.50;;;0.40;;
63807;SDS011;49961;43.970;22.868;2024-01-16T05:24:39;0.43;;;0.40;;
63807;SDS011;49961;43.970;22.868;2024-01-16T05:25:40;1.30;;;0.50;;
63807;SDS011;49961;43.970;22.868;2024-01-16T05:26:40;0.77;;;0.30;;
63807;SDS011;49961;43.970;22.868;2024-01-16T05:27:41;1.70;;;0.57;;
63807;SDS011;49961;43.970;22.868;2024-01-16T05:28:43;1.27;;;0.70;;
63807;SDS011;49961;43.970;22.868;2024-01-16T05:29:44;1.17;;;0.70;;
63807;SDS011;49961;43.970;22.868;2024-01-16T05:30:44;0.67;;;0.60;;
63807;SDS011;49961;43.970;22.868;2024-01-16T05:31:44;0.60;;;0.40;;
63807;SDS011;49961;43.970;22.868;2024-01-16T05:32:45;0.53;;;0.43;;
63807;SDS011;49961;43.970;22.868;2024-01-16T05:33:45;0.77;;;0.50;;
63807;SDS011;49961;43.970;22.868;2024-01-16T05:34:46;0.30;;;0.30;;
63807;SDS011;49961;43.970;22.868;2024-01-16T05:35:46;1.03;;;0.63;;
63807;SDS011;49961;43.970;22.868;2024-01-16T05:36:47;0.40;;;0.40;;
63807;SDS011;49961;43.970;22.868;2024-01-16T05:37:47;0.40;;;0.40;;
63807;SDS011;49961;43.970;22.868;2024-01-16T05:38:48;1.20;;;0.60;;
63807;SDS011;49961;43.970;22.868;2024-01-16T05:39:50;0.98;;;0.43;;
63807;SDS011;49961;43.970;22.868;2024-01-16T05:40:50;3.37;;;0.70;;
63807;SDS011;49961;43.970;22.868;2024-01-16T05:41:52;0.98;;;0.40;;
63807;SDS011;49961;43.970;22.868;2024-01-16T05:42:52;0.50;;;0.50;;
63807;SDS011;49961;43.970;22.868;2024-01-16T05:43:53;0.20;;;0.20;;
63807;SDS011;49961;43.970;22.868;2024-01-16T05:44:53;0.60;;;0.40;;
63807;SDS011;49961;43.970;22.868;2024-01-16T05:45:54;0.40;;;0.40;;
63807;SDS011;49961;43.970;22.868;2024-01-16T05:46:54;0.97;;;0.50;;
63807;SDS011;49961;43.970;22.868;2024-01-16T05:47:55;0.40;;;0.30;;
63807;SDS011;49961;43.970;22.868;2024-01-16T05:48:56;0.50;;;0.50;;
63807;SDS011;49961;43.970;22.868;2024-01-16T05:49:57;0.70;;;0.43;;
63807;SDS011;49961;43.970;22.868;2024-01-16T05:50:57;0.57;;;0.40;;
63807;SDS011;49961;43.970;22.868;2024-01-16T05:51:58;5.50;;;0.60;;
63807;SDS011;49961;43.970;22.868;2024-01-16T05:52:59;1.40;;;0.80;;
63807;SDS011;49961;43.970;22.868;2024-01-16T05:53:59;1.00;;;0.50;;
63807;SDS011;49961;43.970;22.868;2024-01-16T05:55:00;0.37;;;0.37;;
63807;SDS011;49961;43.970;22.868;2024-01-16T05:56:02;0.50;;;0.40;;
63807;SDS011;49961;43.970;22.868;2024-01-16T05:57:03;2.00;;;0.60;;
63807;SDS011;49961;43.970;22.868;2024-01-16T05:58:03;1.47;;;0.70;;
63807;SDS011;49961;43.970;22.868;2024-01-16T05:59:04;0.43;;;0.40;;
63807;SDS011;49961;43.970;22.868;2024-01-16T06:00:05;1.07;;;0.73;;